createdAt,value
2018-12-20T00:00:37.437Z,29.90
2018-12-20T00:03:05.099Z,30.30
2018-12-20T00:05:32.621Z,31.23
2018-12-20T00:08:00.870Z,31.23
2018-12-20T00:10:28.459Z,31.20
2018-12-20T00:12:55.980Z,30.97
2018-12-20T00:15:23.606Z,27.97
2018-12-20T00:17:51.494Z,35.68
2018-12-20T00:20:19.047Z,31.23
2018-12-20T00:22:46.635Z,29.97
2018-12-20T00:25:14.396Z,30.73
2018-12-20T00:27:42.141Z,31.07
2018-12-20T00:30:09.762Z,29.70
2018-12-20T00:32:37.403Z,32.83
2018-12-20T00:35:05.298Z,28.23
2018-12-20T00:37:33.022Z,28.43
2018-12-20T00:40:06.421Z,29.63
2018-12-20T00:42:30.380Z,28.13
2018-12-20T00:44:57.933Z,27.73
2018-12-20T00:47:25.472Z,27.33
2018-12-20T00:49:52.991Z,27.50
2018-12-20T00:52:20.594Z,29.87
2018-12-20T00:54:48.183Z,28.13
2018-12-20T00:57:15.807Z,27.67
2018-12-20T00:59:43.498Z,29.07
2018-12-20T01:02:11.123Z,28.20
2018-12-20T01:04:38.756Z,39.23
2018-12-20T01:07:06.511Z,29.03
2018-12-20T01:09:34.226Z,28.97
2018-12-20T01:12:01.848Z,30.53
2018-12-20T01:14:29.491Z,28.87
2018-12-20T01:16:58.262Z,28.37
2018-12-20T01:19:25.831Z,26.10
2018-12-20T01:21:53.342Z,28.17
2018-12-20T01:24:20.904Z,28.83
2018-12-20T01:26:48.531Z,29.20
2018-12-20T01:29:16.726Z,28.07
2018-12-20T01:31:44.461Z,30.17
2018-12-20T01:34:12.126Z,29.00
2018-12-20T01:36:39.881Z,31.43
2018-12-20T01:39:07.518Z,29.30
2018-12-20T01:41:35.204Z,28.87
2018-12-20T01:44:02.873Z,26.70
2018-12-20T01:46:30.375Z,24.33
2018-12-20T01:48:57.942Z,28.20
2018-12-20T01:51:25.711Z,24.67
2018-12-20T01:53:53.546Z,26.57
2018-12-20T01:56:21.290Z,27.87
2018-12-20T01:58:48.932Z,24.83
2018-12-20T02:01:16.570Z,28.90
2018-12-20T02:03:44.177Z,29.27
2018-12-20T02:06:11.797Z,27.23
2018-12-20T02:08:39.308Z,28.23
2018-12-20T02:11:06.848Z,31.13
2018-12-20T02:13:34.414Z,26.80
2018-12-20T02:16:02.097Z,37.00
2018-12-20T02:18:29.881Z,30.70
2018-12-20T02:20:57.552Z,29.47
2018-12-20T02:23:25.192Z,26.63
2018-12-20T02:25:52.993Z,27.50
2018-12-20T02:28:20.584Z,26.43
2018-12-20T02:30:48.100Z,27.00
2018-12-20T02:33:15.654Z,27.30
2018-12-20T02:35:43.311Z,27.57
2018-12-20T02:38:12.959Z,27.13
2018-12-20T02:40:40.619Z,27.43
2018-12-20T02:43:08.191Z,30.53
2018-12-20T02:45:35.835Z,27.73
2018-12-20T02:48:03.494Z,27.07
2018-12-20T02:50:31.176Z,28.33
2018-12-20T02:52:58.844Z,28.40
2018-12-20T02:55:26.486Z,30.73
2018-12-20T02:57:54.205Z,29.37
2018-12-20T03:00:21.895Z,27.83
2018-12-20T03:02:49.418Z,27.50
2018-12-20T03:05:16.994Z,26.27
2018-12-20T03:07:44.622Z,25.07
2018-12-20T03:10:12.256Z,25.53
2018-12-20T03:12:39.874Z,26.17
2018-12-20T03:15:07.739Z,27.07
2018-12-20T03:17:35.500Z,26.27
2018-12-20T03:20:04.344Z,25.13
2018-12-20T03:22:32.021Z,23.37
2018-12-20T03:24:59.642Z,25.03
2018-12-20T03:27:27.252Z,26.23
2018-12-20T03:29:54.944Z,26.43
2018-12-20T03:32:23.005Z,27.17
2018-12-20T03:34:50.717Z,28.03
2018-12-20T03:37:18.353Z,27.87
2018-12-20T03:39:46.076Z,26.50
2018-12-20T03:42:13.643Z,27.87
2018-12-20T03:44:41.204Z,27.57
2018-12-20T03:47:08.935Z,27.23
2018-12-20T03:49:36.542Z,28.67
2018-12-20T03:52:04.308Z,26.50
2018-12-20T03:54:32.216Z,29.23
2018-12-20T03:56:59.944Z,28.80
2018-12-20T03:59:27.469Z,28.57
2018-12-20T04:01:55.041Z,35.08
2018-12-20T04:04:22.910Z,29.93
2018-12-20T04:06:50.726Z,26.60
2018-12-20T04:09:18.425Z,28.07
2018-12-20T04:11:46.693Z,28.33
2018-12-20T04:14:14.253Z,28.67
2018-12-20T04:16:41.779Z,27.17
2018-12-20T04:19:09.322Z,26.17
2018-12-20T04:21:37.194Z,29.10
2018-12-20T04:24:04.879Z,27.77
2018-12-20T04:26:32.599Z,27.70
2018-12-20T04:29:00.435Z,25.50
2018-12-20T04:31:28.241Z,25.83
2018-12-20T04:33:55.842Z,24.90
2018-12-20T04:36:23.749Z,25.07
2018-12-20T04:38:51.604Z,28.53
2018-12-20T04:41:19.327Z,26.67
2018-12-20T04:43:46.978Z,28.40
2018-12-20T04:46:14.667Z,26.47
2018-12-20T04:48:42.288Z,26.13
2018-12-20T04:51:09.834Z,25.60
2018-12-20T04:53:37.652Z,26.73
2018-12-20T04:56:05.481Z,26.17
2018-12-20T04:58:33.135Z,29.97
2018-12-20T05:01:00.956Z,29.77
2018-12-20T05:03:28.558Z,29.23
2018-12-20T05:05:56.256Z,34.98
2018-12-20T05:08:23.892Z,29.33
2018-12-20T05:10:51.963Z,27.93
2018-12-20T05:13:20.003Z,28.37
2018-12-20T05:15:55.846Z,26.73
2018-12-20T05:18:17.232Z,26.13
2018-12-20T05:20:44.784Z,33.60
2018-12-20T05:23:12.675Z,29.67
2018-12-20T05:25:40.527Z,29.60
2018-12-20T05:28:08.209Z,29.20
2018-12-20T05:30:35.929Z,28.47
2018-12-20T05:33:03.519Z,26.83
2018-12-20T05:35:31.199Z,28.77
2018-12-20T05:37:58.958Z,28.00
2018-12-20T05:40:26.707Z,27.03
2018-12-20T05:42:54.561Z,28.30
2018-12-20T05:45:22.226Z,25.87
2018-12-20T05:47:49.866Z,27.73
2018-12-20T05:50:17.535Z,26.00
2018-12-20T05:52:45.084Z,26.97
2018-12-20T05:55:12.735Z,26.37
2018-12-20T05:57:40.393Z,26.50
2018-12-20T06:00:09.408Z,27.70
2018-12-20T06:02:37.006Z,24.53
2018-12-20T06:05:05.552Z,26.27
2018-12-20T06:07:33.184Z,26.30
2018-12-20T06:10:00.762Z,24.73
2018-12-20T06:12:28.282Z,24.87
2018-12-20T06:14:56.150Z,23.83
2018-12-20T06:17:23.833Z,25.57
2018-12-20T06:19:52.815Z,25.97
2018-12-20T06:22:20.441Z,35.83
2018-12-20T06:24:48.005Z,28.10
2018-12-20T06:27:15.559Z,25.47
2018-12-20T06:29:43.102Z,28.17
2018-12-20T06:32:10.647Z,27.23
2018-12-20T06:34:38.279Z,27.20
2018-12-20T06:37:05.823Z,27.63
2018-12-20T06:39:33.369Z,26.33
2018-12-20T06:42:00.888Z,28.63
2018-12-20T06:44:28.432Z,28.80
2018-12-20T06:46:56.007Z,25.33
2018-12-20T06:49:23.537Z,25.87
2018-12-20T06:51:51.090Z,28.13
2018-12-20T06:54:18.653Z,28.53
2018-12-20T06:56:46.174Z,27.67
2018-12-20T06:59:13.723Z,25.80
2018-12-20T07:01:41.265Z,24.83
2018-12-20T07:04:08.806Z,25.67
2018-12-20T07:06:36.344Z,27.33
2018-12-20T07:09:06.627Z,26.40
2018-12-20T07:11:34.231Z,27.43
2018-12-20T07:14:01.847Z,25.40
2018-12-20T07:16:29.660Z,27.33
2018-12-20T07:18:57.377Z,26.83
2018-12-20T07:21:24.918Z,26.67
2018-12-20T07:23:52.487Z,26.70
2018-12-20T07:26:20.006Z,27.40
2018-12-20T07:28:47.574Z,28.03
2018-12-20T07:31:15.203Z,26.37
2018-12-20T07:33:42.759Z,33.83
2018-12-20T07:36:10.326Z,25.50
2018-12-20T07:38:37.875Z,27.73
2018-12-20T07:41:05.419Z,25.13
2018-12-20T07:43:32.982Z,26.67
2018-12-20T07:46:00.911Z,23.80
2018-12-20T07:48:32.109Z,23.93
2018-12-20T07:50:58.003Z,24.40
2018-12-20T07:53:25.542Z,31.55
2018-12-20T07:55:53.110Z,26.17
2018-12-20T07:58:20.636Z,27.60
2018-12-20T08:00:48.174Z,25.63
2018-12-20T08:03:15.738Z,26.82
2018-12-20T08:05:43.287Z,26.67
2018-12-20T08:08:10.808Z,24.00
2018-12-20T08:10:38.457Z,24.77
2018-12-20T08:13:05.986Z,25.43
2018-12-20T08:15:33.502Z,24.40
2018-12-20T08:18:01.046Z,27.63
2018-12-20T08:20:28.586Z,23.10
2018-12-20T08:22:56.116Z,25.37
2018-12-20T08:25:23.678Z,25.47
2018-12-20T08:27:51.194Z,25.60
2018-12-20T08:30:18.762Z,24.23
2018-12-20T08:32:46.298Z,24.90
2018-12-20T08:35:13.842Z,24.67
2018-12-20T08:37:41.403Z,26.03
2018-12-20T08:40:09.026Z,25.43
2018-12-20T08:42:36.589Z,25.03
2018-12-20T08:45:04.697Z,24.73
2018-12-20T08:47:32.238Z,23.67
2018-12-20T08:49:59.798Z,22.70
2018-12-20T08:52:27.348Z,22.90
2018-12-20T08:54:54.871Z,23.57
2018-12-20T08:57:22.413Z,23.43
2018-12-20T08:59:49.955Z,22.07
2018-12-20T09:02:17.503Z,22.47
2018-12-20T09:04:45.051Z,21.70
2018-12-20T09:07:12.610Z,23.70
2018-12-20T09:09:40.135Z,26.43
2018-12-20T09:12:07.659Z,21.33
2018-12-20T09:14:35.301Z,23.67
2018-12-20T09:17:03.310Z,24.50
2018-12-20T09:19:31.028Z,22.13
2018-12-20T09:21:58.575Z,27.57
2018-12-20T09:24:26.124Z,24.00
2018-12-20T09:26:53.675Z,21.77
2018-12-20T09:29:21.223Z,22.37
2018-12-20T09:31:48.764Z,22.87
2018-12-20T09:34:16.313Z,22.53
2018-12-20T09:36:43.871Z,24.30
2018-12-20T09:39:11.419Z,23.00
2018-12-20T09:41:38.962Z,26.53
2018-12-20T09:44:06.482Z,23.10
2018-12-20T09:46:34.031Z,24.37
2018-12-20T09:49:01.590Z,23.30
2018-12-20T09:51:29.134Z,25.80
2018-12-20T09:53:56.656Z,24.43
2018-12-20T09:56:24.202Z,26.20
2018-12-20T09:58:51.752Z,24.23
2018-12-20T10:01:19.294Z,22.13
2018-12-20T10:03:46.866Z,24.40
2018-12-20T10:06:14.631Z,24.73
2018-12-20T10:08:42.160Z,24.90
2018-12-20T10:11:09.700Z,26.00
2018-12-20T10:13:37.266Z,25.70
2018-12-20T10:16:04.816Z,27.43
2018-12-20T10:18:32.382Z,25.93
2018-12-20T10:20:59.925Z,24.87
2018-12-20T10:23:27.480Z,27.13
2018-12-20T10:25:55.033Z,27.03
2018-12-20T10:28:22.555Z,25.23
2018-12-20T10:30:50.102Z,28.97
2018-12-20T10:33:17.859Z,27.67
2018-12-20T10:35:45.443Z,29.73
2018-12-20T10:38:12.981Z,25.77
2018-12-20T10:40:40.555Z,27.00
2018-12-20T10:43:08.099Z,23.70
2018-12-20T10:45:35.643Z,27.53
2018-12-20T10:48:03.191Z,28.70
2018-12-20T10:50:30.823Z,29.23
2018-12-20T10:52:58.354Z,26.23
2018-12-20T10:55:25.979Z,26.30
2018-12-20T10:57:53.518Z,23.07
2018-12-20T11:00:21.058Z,26.33
2018-12-20T11:02:54.367Z,27.90
2018-12-20T11:05:22.199Z,25.10
2018-12-20T11:07:55.675Z,24.27
2018-12-20T11:10:26.300Z,24.53
2018-12-20T11:12:53.853Z,25.70
2018-12-20T11:15:21.501Z,27.50
2018-12-20T11:17:49.048Z,26.77
2018-12-20T11:20:16.623Z,27.33
2018-12-20T11:22:44.144Z,27.57
2018-12-20T11:25:11.682Z,24.90
2018-12-20T11:27:39.224Z,23.93
2018-12-20T11:30:08.134Z,25.27
2018-12-20T11:32:35.694Z,24.43
2018-12-20T11:35:03.423Z,26.40
2018-12-20T11:37:30.967Z,25.37
2018-12-20T11:39:59.802Z,24.93
2018-12-20T11:42:27.582Z,26.53
2018-12-20T11:44:55.130Z,24.03
2018-12-20T11:47:26.780Z,23.93
2018-12-20T11:49:54.324Z,25.33
2018-12-20T11:52:21.879Z,27.13
2018-12-20T11:54:49.442Z,24.60
2018-12-20T11:57:16.985Z,24.07
2018-12-20T11:59:44.518Z,24.47
2018-12-20T12:02:12.071Z,26.03
2018-12-20T12:04:39.638Z,24.33
2018-12-20T12:07:07.185Z,24.20
2018-12-20T12:09:34.708Z,23.10
2018-12-20T12:12:02.447Z,25.93
2018-12-20T12:14:29.967Z,26.07
2018-12-20T12:16:57.487Z,26.47
2018-12-20T12:19:25.213Z,28.10
2018-12-20T12:21:52.735Z,27.47
2018-12-20T12:24:20.302Z,26.20
2018-12-20T12:26:47.993Z,24.13
2018-12-20T12:29:15.520Z,24.43
2018-12-20T12:31:43.074Z,24.33
2018-12-20T12:34:10.621Z,24.10
2018-12-20T12:36:38.148Z,24.20
2018-12-20T12:39:07.380Z,25.80
2018-12-20T12:41:35.011Z,25.93
2018-12-20T12:44:02.682Z,22.10
2018-12-20T12:46:30.222Z,25.80
2018-12-20T12:48:57.771Z,26.50
2018-12-20T12:51:25.348Z,22.87
2018-12-20T12:53:52.890Z,22.93
2018-12-20T12:56:20.406Z,24.90
2018-12-20T12:58:47.960Z,25.73
2018-12-20T13:01:15.571Z,26.27
2018-12-20T13:03:43.198Z,22.90
2018-12-20T13:06:10.846Z,27.83
2018-12-20T13:08:38.386Z,27.80
2018-12-20T13:11:05.903Z,24.70
2018-12-20T13:13:33.448Z,25.37
2018-12-20T13:16:00.979Z,26.90
2018-12-20T13:18:28.508Z,25.10
2018-12-20T13:20:56.056Z,23.80
2018-12-20T13:23:25.639Z,24.57
2018-12-20T13:25:53.255Z,27.10
2018-12-20T13:28:20.791Z,26.90
2018-12-20T13:30:48.330Z,26.60
2018-12-20T13:33:15.875Z,25.63
2018-12-20T13:35:43.395Z,27.67
2018-12-20T13:38:10.915Z,24.13
2018-12-20T13:40:38.462Z,25.43
2018-12-20T13:43:05.983Z,22.83
2018-12-20T13:45:33.637Z,25.70
2018-12-20T13:48:01.442Z,24.50
2018-12-20T13:50:28.958Z,24.90
2018-12-20T13:52:56.501Z,24.60
2018-12-20T13:55:24.045Z,28.07
2018-12-20T13:57:51.590Z,24.77
2018-12-20T14:00:19.237Z,24.43
2018-12-20T14:02:47.076Z,24.10
2018-12-20T14:05:14.618Z,26.07
2018-12-20T14:07:42.160Z,24.53
2018-12-20T14:10:09.711Z,24.60
2018-12-20T14:12:37.264Z,23.73
2018-12-20T14:15:06.062Z,24.70
2018-12-20T14:17:33.583Z,27.07
2018-12-20T14:20:01.142Z,26.50
2018-12-20T14:22:28.691Z,23.90
2018-12-20T14:24:56.235Z,28.20
2018-12-20T14:27:24.702Z,30.83
2018-12-20T14:29:52.230Z,26.67
2018-12-20T14:32:19.777Z,27.60
2018-12-20T14:34:47.350Z,24.67
2018-12-20T14:37:14.893Z,37.15
2018-12-20T14:39:42.438Z,26.27
2018-12-20T14:42:09.979Z,27.60
2018-12-20T14:44:37.524Z,25.57
2018-12-20T14:47:05.074Z,25.57
2018-12-20T14:49:32.639Z,21.80
2018-12-20T14:52:00.167Z,27.90
2018-12-20T14:54:27.729Z,26.70
2018-12-20T14:56:55.390Z,22.97
2018-12-20T14:59:22.947Z,25.47
2018-12-20T15:01:50.488Z,26.07
2018-12-20T15:04:18.013Z,24.97
2018-12-20T15:06:45.549Z,24.67
2018-12-20T15:09:13.374Z,25.40
2018-12-20T15:11:40.939Z,24.97
2018-12-20T15:14:08.464Z,27.53
2018-12-20T15:16:36.003Z,25.67
2018-12-20T15:19:03.607Z,25.60
2018-12-20T15:21:31.141Z,29.80
2018-12-20T15:23:58.698Z,26.30
2018-12-20T15:26:26.218Z,27.83
2018-12-20T15:28:53.778Z,23.00
2018-12-20T15:31:21.294Z,25.67
2018-12-20T15:33:48.838Z,29.27
2018-12-20T15:36:16.397Z,27.27
2018-12-20T15:38:43.978Z,24.67
2018-12-20T15:41:11.619Z,25.80
2018-12-20T15:43:39.167Z,25.03
2018-12-20T15:46:06.724Z,24.70
2018-12-20T15:48:34.275Z,26.90
2018-12-20T15:51:01.818Z,29.10
2018-12-20T15:53:29.380Z,28.07
2018-12-20T15:55:56.921Z,25.20
2018-12-20T15:58:24.570Z,25.93
2018-12-20T16:00:52.167Z,26.00
2018-12-20T16:03:19.719Z,25.50
2018-12-20T16:05:47.278Z,24.93
2018-12-20T16:08:14.818Z,24.43
2018-12-20T16:10:42.364Z,25.00
2018-12-20T16:13:09.902Z,24.10
2018-12-20T16:15:37.439Z,26.13
2018-12-20T16:18:05.011Z,26.57
2018-12-20T16:20:32.559Z,26.47
2018-12-20T16:23:00.195Z,25.67
2018-12-20T16:25:27.718Z,23.73
2018-12-20T16:27:55.260Z,23.93
2018-12-20T16:30:22.778Z,25.23
2018-12-20T16:32:50.339Z,25.23
2018-12-20T16:35:17.887Z,21.50
2018-12-20T16:37:45.458Z,24.97
2018-12-20T16:40:12.978Z,28.47
2018-12-20T16:42:40.509Z,25.70
2018-12-20T16:45:08.238Z,27.50
2018-12-20T16:47:35.875Z,25.73
2018-12-20T16:50:04.498Z,25.83
2018-12-20T16:52:32.048Z,24.33
2018-12-20T16:54:59.582Z,22.80
2018-12-20T16:57:27.107Z,25.43
2018-12-20T16:59:54.671Z,25.23
2018-12-20T17:02:22.215Z,25.07
2018-12-20T17:04:49.746Z,25.73
2018-12-20T17:07:17.273Z,25.60
2018-12-20T17:09:44.816Z,26.43
2018-12-20T17:12:12.339Z,26.53
2018-12-20T17:14:39.885Z,26.20
2018-12-20T17:17:07.431Z,25.50
2018-12-20T17:19:34.961Z,26.50
2018-12-20T17:22:02.520Z,26.17
2018-12-20T17:24:30.044Z,24.60
2018-12-20T17:26:57.579Z,24.53
2018-12-20T17:29:25.094Z,25.60
2018-12-20T17:31:52.636Z,25.10
2018-12-20T17:34:20.183Z,25.37
2018-12-20T17:36:47.827Z,24.33
2018-12-20T17:39:15.372Z,23.70
2018-12-20T17:41:42.916Z,24.53
2018-12-20T17:44:10.467Z,25.03
2018-12-20T17:46:38.048Z,25.47
2018-12-20T17:49:05.657Z,22.77
2018-12-20T17:51:33.243Z,23.90
2018-12-20T17:54:00.898Z,24.60
2018-12-20T17:56:28.530Z,24.23
2018-12-20T17:58:56.080Z,22.80
2018-12-20T18:01:23.678Z,25.27
2018-12-20T18:03:51.230Z,22.50
2018-12-20T18:06:18.787Z,22.30
2018-12-20T18:08:46.307Z,22.60
2018-12-20T18:11:13.843Z,22.93
2018-12-20T18:13:41.387Z,21.97
2018-12-20T18:16:08.918Z,23.00
2018-12-20T18:18:36.440Z,23.47
2018-12-20T18:21:04.104Z,21.00
2018-12-20T18:23:31.649Z,22.23
2018-12-20T18:25:59.215Z,22.20
2018-12-20T18:28:26.758Z,20.57
2018-12-20T18:30:54.313Z,22.53
2018-12-20T18:33:21.831Z,21.03
2018-12-20T18:35:49.377Z,21.90
2018-12-20T18:38:17.011Z,20.73
2018-12-20T18:40:44.913Z,19.90
2018-12-20T18:43:12.515Z,20.77
2018-12-20T18:45:40.546Z,23.13
2018-12-20T18:48:08.483Z,23.90
2018-12-20T18:50:36.038Z,21.47
2018-12-20T18:53:03.603Z,22.73
2018-12-20T18:55:31.123Z,20.33
2018-12-20T18:57:58.702Z,21.43
2018-12-20T19:00:26.248Z,21.17
2018-12-20T19:02:53.766Z,20.83
2018-12-20T19:05:21.334Z,22.13
2018-12-20T19:07:48.851Z,22.70
2018-12-20T19:10:16.386Z,19.70
2018-12-20T19:12:43.941Z,22.03
2018-12-20T19:15:11.488Z,21.93
2018-12-20T19:17:39.027Z,19.67
2018-12-20T19:20:15.812Z,21.93
2018-12-20T19:22:37.928Z,22.73
2018-12-20T19:25:05.947Z,21.87
2018-12-20T19:27:33.491Z,20.53
2018-12-20T19:30:01.839Z,21.97
2018-12-20T19:32:29.387Z,19.63
2018-12-20T19:34:56.932Z,22.75
2018-12-20T19:37:24.451Z,21.37
2018-12-20T19:39:54.101Z,21.77
2018-12-20T19:42:21.652Z,19.33
2018-12-20T19:44:49.180Z,20.53
2018-12-20T19:47:16.741Z,23.30
2018-12-20T19:49:44.287Z,19.57
2018-12-20T19:52:11.864Z,22.93
2018-12-20T19:54:47.755Z,21.30
2018-12-20T19:57:08.978Z,22.13
2018-12-20T19:59:38.752Z,22.17
2018-12-20T20:02:06.086Z,22.13
2018-12-20T20:04:33.647Z,21.13
2018-12-20T20:07:01.171Z,20.53
2018-12-20T20:09:28.703Z,20.77
2018-12-20T20:11:56.228Z,21.60
2018-12-20T20:14:23.787Z,20.10
2018-12-20T20:16:51.326Z,18.33
2018-12-20T20:19:18.903Z,19.27
2018-12-20T20:21:46.450Z,17.83
2018-12-20T20:24:13.988Z,22.40
2018-12-20T20:26:41.557Z,21.67
2018-12-20T20:29:09.102Z,19.63
2018-12-20T20:31:36.668Z,19.40
2018-12-20T20:34:04.195Z,20.27
2018-12-20T20:36:31.745Z,20.73
2018-12-20T20:39:02.170Z,20.13
2018-12-20T20:41:28.917Z,21.37
2018-12-20T20:43:56.495Z,18.90
2018-12-20T20:46:24.050Z,19.77
2018-12-20T20:48:51.608Z,21.70
2018-12-20T20:51:19.171Z,20.83
2018-12-20T20:53:46.755Z,19.30
2018-12-20T20:56:14.289Z,18.20
2018-12-20T20:58:41.834Z,19.90
2018-12-20T21:01:09.399Z,18.77
2018-12-20T21:03:36.946Z,18.63
2018-12-20T21:06:04.491Z,17.27
2018-12-20T21:08:32.021Z,20.50
2018-12-20T21:10:59.581Z,18.20
2018-12-20T21:13:27.145Z,17.83
2018-12-20T21:15:54.706Z,19.87
2018-12-20T21:18:22.240Z,15.80
2018-12-20T21:20:49.820Z,26.17
2018-12-20T21:23:17.366Z,18.70
2018-12-20T21:25:44.888Z,17.83
2018-12-20T21:28:12.428Z,17.60
2018-12-20T21:30:39.963Z,18.23
2018-12-20T21:33:07.522Z,18.53
2018-12-20T21:35:35.050Z,17.40
2018-12-20T21:38:02.582Z,17.93
2018-12-20T21:40:30.108Z,17.40
2018-12-20T21:42:57.675Z,16.73
2018-12-20T21:45:25.191Z,16.00
2018-12-20T21:47:52.757Z,16.30
2018-12-20T21:50:20.280Z,15.50
2018-12-20T21:52:47.827Z,17.50
2018-12-20T21:55:15.394Z,17.50
2018-12-20T21:57:42.915Z,16.40
2018-12-20T22:00:10.952Z,15.67
2018-12-20T22:02:38.475Z,18.17
2018-12-20T22:05:06.114Z,17.17
2018-12-20T22:07:33.648Z,16.93
2018-12-20T22:10:01.197Z,17.87
2018-12-20T22:12:28.751Z,15.90
2018-12-20T22:14:56.286Z,16.40
2018-12-20T22:17:23.827Z,16.47
2018-12-20T22:19:58.455Z,14.10
2018-12-20T22:22:20.950Z,13.90
2018-12-20T22:24:48.477Z,18.48
2018-12-20T22:27:16.048Z,15.20
2018-12-20T22:29:43.586Z,13.70
2018-12-20T22:32:11.226Z,14.53
2018-12-20T22:34:38.753Z,16.07
2018-12-20T22:37:06.289Z,15.33
2018-12-20T22:39:33.828Z,16.90
2018-12-20T22:42:01.385Z,13.77
2018-12-20T22:44:28.928Z,14.03
2018-12-20T22:46:56.451Z,15.00
2018-12-20T22:49:24.013Z,13.80
2018-12-20T22:51:51.535Z,12.73
2018-12-20T22:54:19.107Z,13.17
2018-12-20T22:56:46.632Z,12.17
2018-12-20T22:59:14.191Z,12.30
2018-12-20T23:01:41.750Z,12.60
2018-12-20T23:04:09.293Z,12.97
2018-12-20T23:06:36.953Z,12.77
2018-12-20T23:09:06.157Z,11.30
2018-12-20T23:11:33.700Z,10.77
2018-12-20T23:14:01.263Z,11.00
2018-12-20T23:16:28.809Z,11.90
2018-12-20T23:18:56.342Z,12.43
2018-12-20T23:21:23.864Z,10.70
2018-12-20T23:23:51.423Z,13.00
2018-12-20T23:26:18.951Z,11.77
2018-12-20T23:28:46.497Z,10.37
2018-12-20T23:31:14.045Z,10.93
2018-12-20T23:33:41.595Z,10.30
2018-12-20T23:36:09.158Z,14.18
2018-12-20T23:38:36.795Z,9.07
2018-12-20T23:41:04.341Z,8.27
2018-12-20T23:43:31.860Z,9.43
2018-12-20T23:45:59.390Z,8.87
2018-12-20T23:48:26.911Z,8.50
2018-12-20T23:50:54.448Z,10.20
2018-12-20T23:53:21.985Z,8.10
2018-12-20T23:55:49.551Z,7.67
2018-12-20T23:58:17.179Z,7.77
